Time;durP1;ratioP1;P1;durP2;ratioP2;P2;SDS_P1;SDS_P2;PMS_P1;PMS_P2;Temp;Humidity;BMP_temperature;BMP_pressure;BME280_temperature;BME280_humidity;BME280_pressure;Samples;Min_cycle;Max_cycle;Signal;HPM_P1;HPM_P2
2022/02/23 00:01:05;;;;;;;1.73;0.70;;;;;;;9.54;87.65;98590.59;4120709;28;20656;-88
2022/02/23 00:03:10;;;;;;;2.83;1.00;;;;;;;9.58;87.72;98583.47;4121192;28;20694;-87
2022/02/23 00:05:14;;;;;;;2.13;1.00;;;;;;;9.59;87.42;98586.00;4122844;28;20750;-89
2022/02/23 00:07:17;;;;;;;1.83;0.90;;;;;;;9.56;87.25;98582.72;4123553;28;20620;-87
2022/02/23 00:09:20;;;;;;;2.17;0.80;;;;;;;9.59;87.31;98592.94;4123275;28;21237;-87
2022/02/23 00:11:24;;;;;;;3.50;1.03;;;;;;;9.62;87.15;98592.78;4123043;28;20704;-87
2022/02/23 00:13:27;;;;;;;2.30;0.90;;;;;;;9.63;87.60;98589.25;4123728;28;20647;-88
2022/02/23 00:15:30;;;;;;;1.57;0.70;;;;;;;9.60;87.24;98587.66;4134144;28;20685;-87
2022/02/23 00:17:33;;;;;;;1.40;0.80;;;;;;;9.62;87.38;98585.81;4122498;28;20672;-90
2022/02/23 00:19:39;;;;;;;1.20;0.70;;;;;;;9.51;88.01;98588.19;4124200;28;20750;-88
2022/02/23 00:21:44;;;;;;;1.57;0.87;;;;;;;9.50;88.40;98588.25;4129144;28;20667;-88
2022/02/23 00:23:47;;;;;;;2.33;0.87;;;;;;;9.47;88.78;98598.84;4126168;28;20703;-86
2022/02/23 00:25:51;;;;;;;1.60;0.70;;;;;;;9.46;88.58;98589.38;4120844;28;21453;-87
2022/02/23 00:27:54;;;;;;;1.73;0.80;;;;;;;9.48;88.82;98597.94;4120722;28;20675;-89
2022/02/23 00:29:57;;;;;;;1.90;0.73;;;;;;;9.51;88.86;98597.75;4120793;28;20634;-88
2022/02/23 00:32:00;;;;;;;2.17;0.77;;;;;;;9.46;88.51;98599.78;4100370;28;20688;-89
2022/02/23 00:34:03;;;;;;;1.40;0.80;;;;;;;9.48;88.51;98597.94;4121460;28;21180;-88
2022/02/23 00:36:10;;;;;;;2.23;0.70;;;;;;;9.53;88.33;98601.09;4122499;28;21190;-88
2022/02/23 00:38:16;;;;;;;2.50;1.20;;;;;;;9.53;88.16;98612.38;4123061;28;20645;-86
2022/02/23 00:40:19;;;;;;;1.97;0.80;;;;;;;9.62;88.23;98611.00;4126809;28;20678;-87
2022/02/23 00:42:24;;;;;;;2.20;1.10;;;;;;;9.51;88.39;98609.00;4120256;28;20743;-87
2022/02/23 00:44:28;;;;;;;2.40;0.80;;;;;;;9.51;88.56;98608.19;4124074;28;20704;-88
2022/02/23 00:46:32;;;;;;;1.67;0.90;;;;;;;9.54;88.68;98608.00;4105376;28;20750;-89
2022/02/23 00:48:37;;;;;;;2.83;0.90;;;;;;;9.57;89.06;98605.22;4102191;28;20666;-88
2022/02/23 00:50:40;;;;;;;1.60;0.97;;;;;;;9.52;89.20;98610.69;4123229;28;20991;-86
2022/02/23 00:52:44;;;;;;;1.67;0.70;;;;;;;9.57;88.75;98610.44;4120654;28;20693;-88
2022/02/23 00:54:47;;;;;;;5.47;0.80;;;;;;;9.60;88.81;98608.50;4121607;28;20628;-88
2022/02/23 00:56:51;;;;;;;1.47;0.87;;;;;;;9.59;88.75;98613.78;4102098;28;21259;-89
2022/02/23 00:58:54;;;;;;;2.10;0.87;;;;;;;9.62;88.69;98609.25;4122548;28;20676;-88
2022/02/23 01:00:57;;;;;;;1.60;0.80;;;;;;;9.65;88.57;98608.22;4121696;28;20629;-89
2022/02/23 01:03:01;;;;;;;2.43;0.70;;;;;;;9.64;88.00;98604.81;4120226;28;20642;-88
2022/02/23 01:05:04;;;;;;;2.43;0.90;;;;;;;9.68;89.03;98600.25;4125789;28;20660;-88
2022/02/23 01:07:10;;;;;;;2.97;0.97;;;;;;;9.72;88.48;98610.41;4122802;28;21002;-84
2022/02/23 01:09:14;;;;;;;1.80;0.90;;;;;;;9.70;88.69;98616.66;4119542;28;20645;-89
2022/02/23 01:11:19;;;;;;;1.60;0.90;;;;;;;9.71;88.82;98605.28;4119854;28;20723;-89
2022/02/23 01:13:23;;;;;;;1.80;0.80;;;;;;;9.75;88.76;98614.63;4124285;28;20632;-84
2022/02/23 01:15:26;;;;;;;1.60;0.70;;;;;;;9.79;88.66;98603.06;4127049;28;20690;-87
2022/02/23 01:17:29;;;;;;;2.23;0.80;;;;;;;9.80;88.58;98605.59;4126866;28;20621;-89
2022/02/23 01:19:33;;;;;;;2.00;0.90;;;;;;;9.78;88.80;98598.81;4122003;28;20626;-89
2022/02/23 01:21:37;;;;;;;1.77;0.90;;;;;;;9.83;89.14;98630.63;4123846;28;20639;-89
2022/02/23 01:23:40;;;;;;;1.57;0.90;;;;;;;9.84;89.49;98643.56;4122614;28;20639;-89
2022/02/23 01:25:45;;;;;;;3.30;2.20;;;;;;;9.77;87.90;98677.88;4116991;28;21229;-85
2022/02/23 01:27:48;;;;;;;2.60;0.60;;;;;;;9.43;85.96;98691.06;4117663;28;20647;-88
2022/02/23 01:29:51;;;;;;;1.67;0.60;;;;;;;9.07;85.60;98700.84;4101527;28;20678;-87
2022/02/23 01:31:56;;;;;;;1.87;0.80;;;;;;;8.68;87.25;98715.06;4121174;28;20666;-88
2022/02/23 01:33:59;;;;;;;1.50;0.60;;;;;;;8.51;85.73;98719.44;4118182;28;20636;-87
2022/02/23 01:36:03;;;;;;;2.13;0.73;;;;;;;8.33;88.52;98725.56;4123986;28;20729;-87
2022/02/23 01:38:06;;;;;;;5.40;0.97;;;;;;;8.03;88.51;98723.56;4120236;28;20679;-88
2022/02/23 01:40:13;;;;;;;3.22;1.05;;;;;;;7.94;88.50;98728.34;4120561;28;20636;-87
2022/02/23 01:42:18;;;;;;;3.28;0.85;;;;;;;7.95;88.92;98735.22;4119081;28;20223;-88
2022/02/23 01:44:20;;;;;;;3.92;0.90;;;;;;;7.96;90.35;98729.13;4117229;28;20247;-88
2022/02/23 01:46:27;;;;;;;5.03;1.08;;;;;;;7.96;90.19;98740.34;4119154;28;20214;-88
2022/02/23 01:48:30;;;;;;;6.57;1.10;;;;;;;7.95;89.65;98748.22;4119647;28;20213;-89
2022/02/23 01:50:33;;;;;;;2.55;0.70;;;;;;;7.89;90.29;98754.53;4125110;28;20723;-85
2022/02/23 01:52:36;;;;;;;3.47;0.90;;;;;;;7.84;89.53;98766.91;4135348;28;20208;-87
2022/02/23 01:54:40;;;;;;;1.85;0.73;;;;;;;7.87;90.10;98768.53;4119221;28;20217;-88
2022/02/23 01:56:43;;;;;;;1.58;0.90;;;;;;;7.87;88.81;98774.53;4124609;28;20238;-88
2022/02/23 01:58:48;;;;;;;2.90;0.80;;;;;;;7.90;89.19;98777.00;4123174;28;20299;-89
2022/02/23 02:00:51;;;;;;;2.05;0.80;;;;;;;7.93;90.30;98774.25;4108182;28;20213;-89
2022/02/23 02:02:54;;;;;;;3.08;0.90;;;;;;;7.94;89.51;98767.28;4121009;28;20213;-88
2022/02/23 02:04:57;;;;;;;3.30;0.88;;;;;;;7.96;88.48;98766.31;4117024;28;20276;-88
2022/02/23 02:07:00;;;;;;;1.45;0.80;;;;;;;8.03;88.87;98763.38;4117577;28;20219;-88
2022/02/23 02:09:04;;;;;;;2.60;0.73;;;;;;;8.02;88.68;98766.03;4120905;28;20204;-89
2022/02/23 02:11:07;;;;;;;3.60;0.93;;;;;;;8.06;87.82;98767.59;4108824;28;21191;-89
2022/02/23 02:13:10;;;;;;;3.53;0.90;;;;;;;8.10;89.07;98774.28;4119527;28;20214;-86
2022/02/23 02:15:14;;;;;;;3.30;0.73;;;;;;;8.16;88.61;98774.03;4124188;28;20684;-89
2022/02/23 02:17:17;;;;;;;2.83;0.95;;;;;;;8.17;87.98;98780.94;4123383;28;21031;-89
2022/02/23 02:19:20;;;;;;;6.15;1.25;;;;;;;8.19;87.36;98782.50;4123858;28;20208;-90
2022/02/23 02:21:23;;;;;;;2.85;1.05;;;;;;;8.24;87.40;98797.88;4120697;28;20327;-88
2022/02/23 02:23:28;;;;;;;2.30;0.60;;;;;;;8.25;88.01;98808.19;4124048;28;20208;-89
2022/02/23 02:25:31;;;;;;;3.28;0.80;;;;;;;8.27;88.03;98806.41;4130838;28;20678;-90
2022/02/23 02:27:34;;;;;;;3.17;1.02;;;;;;;8.28;88.70;98810.66;4124466;28;20202;-89
2022/02/23 02:29:38;;;;;;;2.55;0.75;;;;;;;8.32;89.24;98822.59;4124811;28;20223;-86
2022/02/23 02:31:41;;;;;;;4.68;0.90;;;;;;;8.37;88.48;98835.38;4119427;28;20717;-89
2022/02/23 02:33:44;;;;;;;2.93;0.90;;;;;;;8.36;88.96;98834.53;4125368;28;20679;-87
2022/02/23 02:35:47;;;;;;;2.80;0.90;;;;;;;8.38;88.36;98839.66;4120928;28;20693;-88
2022/02/23 02:37:51;;;;;;;6.60;1.08;;;;;;;8.39;88.56;98847.38;4123675;28;20640;-88
2022/02/23 02:39:56;;;;;;;4.13;1.10;;;;;;;8.42;89.45;98846.38;4117630;28;20639;-89
2022/02/23 02:41:59;;;;;;;2.88;0.88;;;;;;;8.44;88.68;98859.22;4118975;28;20230;-88
2022/02/23 02:44:05;;;;;;;3.77;1.37;;;;;;;8.46;88.59;98856.56;4122884;28;20204;-89
2022/02/23 02:46:08;;;;;;;5.23;1.00;;;;;;;8.47;89.27;98860.84;4123516;28;20707;-87
2022/02/23 02:48:11;;;;;;;4.13;1.17;;;;;;;8.47;89.70;98868.66;4119923;28;20648;-87
2022/02/23 02:50:14;;;;;;;3.30;1.20;;;;;;;8.43;89.05;98872.31;4119538;28;21166;-85
2022/02/23 02:52:18;;;;;;;2.70;0.90;;;;;;;8.42;89.06;98883.63;4133615;28;20642;-87
2022/02/23 02:54:21;;;;;;;3.60;1.00;;;;;;;8.39;89.27;98881.19;4111573;28;21195;-88
2022/02/23 02:56:25;;;;;;;5.63;0.90;;;;;;;8.36;88.63;98875.25;4123975;28;20672;-89
2022/02/23 02:58:31;;;;;;;6.28;0.80;;;;;;;8.36;88.63;98886.50;4122241;28;20695;-85
2022/02/23 03:00:34;;;;;;;3.17;0.85;;;;;;;8.36;88.19;98883.91;4124190;28;20283;-88
2022/02/23 03:02:37;;;;;;;2.90;0.97;;;;;;;8.36;89.23;98888.25;4125443;28;20692;-89
2022/02/23 03:04:40;;;;;;;2.50;1.10;;;;;;;8.35;89.28;98892.63;4123027;28;20702;-87
2022/02/23 03:06:46;;;;;;;5.50;1.30;;;;;;;8.37;89.69;98892.53;4119907;28;20213;-89
2022/02/23 03:08:51;;;;;;;2.75;1.15;;;;;;;8.39;88.25;98896.78;4123829;28;21006;-89
2022/02/23 03:10:54;;;;;;;3.20;0.88;;;;;;;8.38;88.64;98899.44;4122807;28;20239;-89
2022/02/23 03:12:59;;;;;;;2.50;1.00;;;;;;;8.39;88.36;98895.91;4121909;28;20230;-88
2022/02/23 03:15:05;;;;;;;4.00;0.80;;;;;;;8.40;89.10;98903.63;4135689;28;20243;-89
2022/02/23 03:17:08;;;;;;;3.35;0.90;;;;;;;8.40;89.12;98903.63;4124945;28;20647;-85
2022/02/23 03:19:11;;;;;;;4.20;1.10;;;;;;;8.41;89.01;98913.13;4118725;28;20205;-87
2022/02/23 03:21:14;;;;;;;6.63;1.20;;;;;;;8.41;89.77;98915.72;4138411;28;20631;-89
2022/02/23 03:23:18;;;;;;;4.07;1.10;;;;;;;8.41;88.59;98905.31;4120784;28;20204;-88
2022/02/23 03:25:21;;;;;;;2.50;0.93;;;;;;;8.43;88.66;98908.69;4122062;28;20658;-88
2022/02/23 03:27:26;;;;;;;3.05;0.80;;;;;;;8.43;90.10;98911.28;4121405;28;20634;-88
2022/02/23 03:29:31;;;;;;;3.63;1.10;;;;;;;8.44;88.39;98915.56;4124859;28;20221;-89
2022/02/23 03:31:35;;;;;;;3.93;1.20;;;;;;;8.44;88.31;98918.19;4119532;28;21551;-88
2022/02/23 03:33:42;;;;;;;3.97;1.10;;;;;;;8.43;89.48;98919.06;4119531;28;20694;-88
2022/02/23 03:35:47;;;;;;;2.10;1.07;;;;;;;8.41;89.39;98920.09;4125328;28;21018;-89
2022/02/23 03:37:50;;;;;;;3.50;0.90;;;;;;;8.37;87.80;98924.56;4110012;28;20750;-89
2022/02/23 03:39:52;;;;;;;2.42;1.10;;;;;;;8.32;88.05;98931.75;4124420;28;20641;-89
2022/02/23 03:41:56;;;;;;;3.20;0.93;;;;;;;8.32;87.82;98936.94;4121021;28;20229;-87
2022/02/23 03:43:59;;;;;;;2.42;1.20;;;;;;;8.28;88.25;98942.34;4123902;28;20207;-89
2022/02/23 03:46:03;;;;;;;1.95;0.80;;;;;;;8.23;88.91;98941.72;4121004;28;20315;-88
2022/02/23 03:48:06;;;;;;;2.60;1.00;;;;;;;8.18;87.48;98948.88;4120164;28;20228;-89
2022/02/23 03:50:10;;;;;;;3.50;0.95;;;;;;;8.11;88.77;98953.50;4121779;28;20745;-85
2022/02/23 03:52:15;;;;;;;2.40;1.03;;;;;;;8.06;87.49;98955.44;4119254;28;20216;-86
2022/02/23 03:54:18;;;;;;;4.68;1.27;;;;;;;8.04;87.29;98957.25;4108637;28;20690;-89
2022/02/23 03:56:39;;;;;;;4.67;1.30;;;;;;;8.01;87.33;98967.78;4120868;28;20193;-87
2022/02/23 03:58:42;;;;;;;3.47;1.00;;;;;;;7.96;88.02;98973.25;4121240;28;20982;-88
2022/02/23 04:00:45;;;;;;;7.00;1.10;;;;;;;7.90;88.44;98974.34;4118486;28;20720;-87
2022/02/23 04:02:50;;;;;;;2.20;1.00;;;;;;;7.84;88.57;98973.78;4123712;28;20642;-88
2022/02/23 04:04:53;;;;;;;4.88;1.10;;;;;;;7.77;88.83;98982.72;4118387;28;20663;-88
2022/02/23 04:06:56;;;;;;;3.13;1.10;;;;;;;7.73;87.34;98981.19;4123043;28;20242;-89
2022/02/23 04:09:00;;;;;;;1.95;0.80;;;;;;;7.71;88.07;98983.84;4120281;28;20656;-87
2022/02/23 04:11:03;;;;;;;3.57;0.97;;;;;;;7.69;88.08;98982.22;4120462;28;20235;-88
2022/02/23 04:13:07;;;;;;;1.88;1.00;;;;;;;7.68;88.36;98991.78;4123545;28;20667;-89
2022/02/23 04:15:10;;;;;;;3.67;0.98;;;;;;;7.66;87.90;98997.94;4121615;28;20671;-88
2022/02/23 04:17:14;;;;;;;6.75;1.30;;;;;;;7.66;88.76;98995.34;4125475;28;20203;-86
2022/02/23 04:19:18;;;;;;;2.83;1.00;;;;;;;7.64;87.99;99005.78;4120170;28;20207;-87
2022/02/23 04:21:22;;;;;;;2.50;1.30;;;;;;;7.62;88.35;98997.22;4126425;28;20671;-86
2022/02/23 04:23:25;;;;;;;4.72;1.60;;;;;;;7.58;88.93;98998.25;4105011;28;20201;-88
2022/02/23 04:25:28;;;;;;;4.22;1.30;;;;;;;7.57;88.75;99000.91;4122030;28;20314;-86
2022/02/23 04:27:31;;;;;;;7.07;1.33;;;;;;;7.55;89.97;99003.56;4116872;28;20277;-89
2022/02/23 04:29:34;;;;;;;3.30;1.60;;;;;;;7.54;89.14;99007.06;4120044;28;20612;-86
2022/02/23 04:31:38;;;;;;;2.78;1.17;;;;;;;7.52;90.28;99008.06;4118977;28;20238;-84
2022/02/23 04:33:42;;;;;;;6.15;1.40;;;;;;;7.46;89.82;99013.50;4124553;28;20204;-88
2022/02/23 04:35:47;;;;;;;6.03;1.70;;;;;;;7.42;89.68;99024.91;4123224;28;20239;-88
2022/02/23 04:37:50;;;;;;;4.22;1.55;;;;;;;7.39;90.26;99017.22;4120815;28;20240;-87
2022/02/23 04:39:53;;;;;;;5.57;1.45;;;;;;;7.36;89.37;99019.94;4120530;28;20265;-87
2022/02/23 04:41:56;;;;;;;3.40;1.55;;;;;;;7.36;89.51;99017.34;4112728;28;20227;-85
2022/02/23 04:43:59;;;;;;;8.60;2.10;;;;;;;7.33;90.27;99025.25;4120293;28;20240;-88
2022/02/23 04:46:04;;;;;;;3.85;1.70;;;;;;;7.29;89.63;99025.44;4104592;28;20225;-86
2022/02/23 04:48:14;;;;;;;3.72;1.65;;;;;;;7.25;89.24;99029.94;4121074;28;20201;-86
2022/02/23 04:50:17;;;;;;;7.70;1.70;;;;;;;7.24;90.02;99028.22;4129577;28;20208;-87
2022/02/23 04:52:24;;;;;;;7.90;1.52;;;;;;;7.21;90.47;99033.53;4123395;28;20281;-88
2022/02/23 04:54:27;;;;;;;2.65;1.25;;;;;;;7.21;90.03;99036.13;4132434;28;20231;-87
2022/02/23 04:56:31;;;;;;;2.67;1.60;;;;;;;7.18;90.44;99049.22;4125582;28;20213;-86
2022/02/23 04:58:36;;;;;;;5.25;1.70;;;;;;;7.14;90.28;99041.63;4123300;28;20213;-86
2022/02/23 05:00:41;;;;;;;5.68;2.20;;;;;;;7.10;90.44;99061.66;4103440;28;20221;-88
2022/02/23 05:02:47;;;;;;;9.15;2.08;;;;;;;7.04;89.98;99055.88;4126965;28;20202;-88
2022/02/23 05:04:59;;;;;;;6.72;1.55;;;;;;;6.93;89.77;99059.78;4117348;28;20208;-86
2022/02/23 05:07:02;;;;;;;2.25;1.00;;;;;;;6.84;90.04;99054.94;4117260;28;20704;-87
2022/02/23 05:09:07;;;;;;;2.70;1.30;;;;;;;6.80;89.35;99058.56;4117508;28;20216;-87
2022/02/23 05:11:10;;;;;;;4.18;1.50;;;;;;;6.78;90.05;99066.41;4128612;28;20618;-88
2022/02/23 05:13:13;;;;;;;5.10;1.70;;;;;;;6.78;88.87;99063.81;4133729;28;20256;-88
2022/02/23 05:15:16;;;;;;;6.45;1.65;;;;;;;6.80;89.68;99066.34;4123332;28;20208;-87
2022/02/23 05:17:19;;;;;;;4.43;1.30;;;;;;;6.81;89.54;99062.84;4118678;28;20212;-87
2022/02/23 05:19:22;;;;;;;2.75;1.13;;;;;;;6.83;90.23;99066.22;4119301;28;20206;-89
2022/02/23 05:21:25;;;;;;;4.03;1.70;;;;;;;6.81;89.57;99068.00;4123518;28;20216;-88
2022/02/23 05:23:29;;;;;;;4.60;1.60;;;;;;;6.78;89.52;99062.94;4121588;28;20215;-86
2022/02/23 05:25:34;;;;;;;3.15;1.20;;;;;;;6.73;89.19;99072.66;4121517;28;20209;-89
2022/02/23 05:27:39;;;;;;;2.67;1.33;;;;;;;6.71;90.04;99079.66;4104167;28;20698;-87
2022/02/23 05:29:42;;;;;;;2.47;1.10;;;;;;;6.69;89.33;99082.28;4119642;28;20243;-88
2022/02/23 05:31:45;;;;;;;5.03;1.80;;;;;;;6.69;89.83;99081.44;4123197;28;20220;-88
2022/02/23 05:33:48;;;;;;;2.78;1.02;;;;;;;6.65;89.16;99079.88;4120402;28;20270;-88
2022/02/23 05:35:52;;;;;;;6.07;1.42;;;;;;;6.60;88.98;99074.88;4125417;28;20205;-88
2022/02/23 05:37:55;;;;;;;6.07;1.30;;;;;;;6.58;89.69;99081.84;4127595;28;20204;-90
2022/02/23 05:39:58;;;;;;;3.55;1.10;;;;;;;6.55;89.29;99081.09;4122684;28;20208;-87
2022/02/23 05:42:02;;;;;;;4.63;1.35;;;;;;;6.52;90.07;99094.16;4123424;28;20224;-88
2022/02/23 05:44:06;;;;;;;5.22;1.30;;;;;;;6.51;89.56;99089.91;4127943;28;20244;-87
2022/02/23 05:46:09;;;;;;;5.85;1.60;;;;;;;6.50;89.50;99088.22;4123563;28;20613;-88
2022/02/23 05:48:12;;;;;;;4.28;1.35;;;;;;;6.52;89.80;99096.75;4123554;28;20224;-87
2022/02/23 05:50:15;;;;;;;3.63;1.50;;;;;;;6.51;88.63;99105.47;4127661;28;20207;-87
2022/02/23 05:52:20;;;;;;;2.70;1.10;;;;;;;6.50;88.57;99108.94;4126121;28;20207;-89
2022/02/23 05:54:23;;;;;;;3.55;1.23;;;;;;;6.50;88.95;99111.53;4125259;28;20253;-88
2022/02/23 05:56:26;;;;;;;4.90;1.40;;;;;;;6.47;89.45;99111.63;4124723;28;20295;-88
2022/02/23 05:58:31;;;;;;;4.78;1.58;;;;;;;6.44;89.85;99118.69;4102928;28;20709;-91
2022/02/23 06:00:35;;;;;;;3.22;1.17;;;;;;;6.42;89.08;99123.06;4119518;28;20212;-85
2022/02/23 06:02:38;;;;;;;3.40;1.50;;;;;;;6.39;89.15;99125.75;4121126;28;20295;-88
2022/02/23 06:04:42;;;;;;;4.40;1.40;;;;;;;6.38;88.81;99127.50;4122943;28;20207;-89
2022/02/23 06:06:45;;;;;;;3.75;1.55;;;;;;;6.33;88.56;99132.00;4122875;28;20205;-88
2022/02/23 06:08:50;;;;;;;5.57;2.10;;;;;;;6.22;88.36;99136.72;4120298;28;20232;-87
2022/02/23 06:10:59;;;;;;;5.90;2.97;;;;;;;6.10;88.85;99131.97;4108449;28;20627;-88
2022/02/23 06:13:02;;;;;;;7.55;2.55;;;;;;;6.05;89.61;99137.34;4123599;28;20264;-87
2022/02/23 06:15:08;;;;;;;5.03;1.88;;;;;;;6.01;90.35;99138.34;4125067;28;20204;-88
2022/02/23 06:17:11;;;;;;;5.20;1.92;;;;;;;5.98;89.36;99148.78;4111209;28;20214;-87
2022/02/23 06:19:14;;;;;;;4.53;1.63;;;;;;;5.95;89.25;99151.47;4124108;28;20205;-87
2022/02/23 06:21:17;;;;;;;9.25;1.90;;;;;;;5.97;89.43;99152.25;4120351;28;20698;-85
2022/02/23 06:23:21;;;;;;;3.53;2.30;;;;;;;5.99;89.35;99161.69;4125283;28;20673;-85
2022/02/23 06:25:25;;;;;;;5.07;2.25;;;;;;;6.02;89.98;99165.94;4124036;28;20213;-86
2022/02/23 06:27:33;;;;;;;4.00;2.20;;;;;;;6.07;90.88;99166.59;4114945;28;20273;-82
2022/02/23 06:29:36;;;;;;;8.38;1.83;;;;;;;6.09;90.21;99166.50;4121711;28;20578;-85
2022/02/23 06:31:44;;;;;;;3.78;2.00;;;;;;;6.12;90.27;99174.16;4129642;28;20275;-85
2022/02/23 06:33:47;;;;;;;6.70;2.90;;;;;;;6.11;91.01;99175.06;4131795;28;20266;-85
2022/02/23 06:35:51;;;;;;;8.05;3.13;;;;;;;6.12;90.62;99176.75;4135887;28;20203;-85
2022/02/23 06:37:54;;;;;;;7.90;3.60;;;;;;;6.13;90.33;99175.88;4126914;28;20730;-84
2022/02/23 06:39:59;;;;;;;7.22;3.10;;;;;;;6.11;90.35;99188.00;4124676;28;20597;-85
2022/02/23 06:42:03;;;;;;;8.93;3.40;;;;;;;6.12;90.27;99188.88;4124164;28;20251;-84
2022/02/23 06:44:06;;;;;;;5.57;3.30;;;;;;;6.12;91.10;99188.88;4117191;28;20669;-85
2022/02/23 06:46:10;;;;;;;8.60;3.63;;;;;;;6.13;90.80;99191.41;4105615;28;20734;-85
2022/02/23 06:48:14;;;;;;;6.95;3.30;;;;;;;6.13;90.57;99195.72;4119625;28;20228;-84
2022/02/23 06:50:18;;;;;;;8.05;4.05;;;;;;;6.13;90.36;99196.59;4116959;28;20209;-85
2022/02/23 06:52:22;;;;;;;8.90;4.28;;;;;;;6.14;91.00;99198.25;4123037;28;20246;-85
2022/02/23 06:54:26;;;;;;;6.47;4.05;;;;;;;6.20;90.74;99208.41;4122824;28;20249;-86
2022/02/23 06:56:29;;;;;;;10.15;4.07;;;;;;;6.22;90.91;99200.59;4104480;28;20698;-86
2022/02/23 06:58:33;;;;;;;9.88;4.38;;;;;;;6.22;90.94;99206.66;4131618;28;20205;-85
2022/02/23 07:00:36;;;;;;;8.05;4.25;;;;;;;6.24;90.94;99207.44;4126819;28;20747;-85
2022/02/23 07:02:39;;;;;;;10.60;4.50;;;;;;;6.27;91.10;99204.75;4128320;28;20306;-85
2022/02/23 07:04:44;;;;;;;12.30;4.88;;;;;;;6.31;90.95;99214.06;4125345;28;20196;-86
2022/02/23 07:06:47;;;;;;;8.77;4.53;;;;;;;6.35;90.59;99223.44;4121746;28;20218;-85
2022/02/23 07:08:51;;;;;;;7.50;4.60;;;;;;;6.37;90.91;99221.63;4115987;28;20236;-86
2022/02/23 07:10:54;;;;;;;8.93;4.20;;;;;;;6.37;90.03;99218.22;4103665;28;20209;-87
2022/02/23 07:12:58;;;;;;;8.45;4.60;;;;;;;6.37;90.23;99221.63;4118219;28;20282;-84
2022/02/23 07:15:01;;;;;;;7.60;3.90;;;;;;;6.39;90.89;99224.19;4121381;28;20201;-85
2022/02/23 07:17:04;;;;;;;10.23;4.20;;;;;;;6.45;90.62;99223.97;4111084;28;20284;-84
2022/02/23 07:19:08;;;;;;;9.68;4.43;;;;;;;6.54;90.17;99231.44;4114945;28;20212;-86
2022/02/23 07:21:13;;;;;;;13.32;4.82;;;;;;;6.64;90.43;99231.06;4124965;28;20232;-84
2022/02/23 07:23:16;;;;;;;10.73;5.13;;;;;;;6.65;90.35;99230.19;4118337;28;20232;-84
2022/02/23 07:25:20;;;;;;;15.68;9.23;;;;;;;6.67;90.85;99233.56;4125395;28;20299;-84
2022/02/23 07:27:24;;;;;;;9.35;3.70;;;;;;;6.67;90.39;99230.97;4118186;28;20212;-85
2022/02/23 07:29:27;;;;;;;8.32;4.63;;;;;;;6.67;90.56;99236.16;4105080;28;20627;-82
2022/02/23 07:31:30;;;;;;;10.75;5.97;;;;;;;6.67;89.91;99236.16;4102324;28;20249;-84
2022/02/23 07:33:35;;;;;;;16.45;11.40;;;;;;;6.63;89.91;99242.31;4127455;28;20353;-85
2022/02/23 07:35:38;;;;;;;14.70;12.80;;;;;;;6.57;89.56;99239.97;4128413;28;20239;-84
2022/02/23 07:37:43;;;;;;;43.28;36.13;;;;;;;6.60;89.72;99256.25;4110772;28;20325;-84
2022/02/23 07:39:46;;;;;;;14.82;9.02;;;;;;;6.94;91.43;99253.34;4127158;28;20214;-85
2022/02/23 07:41:50;;;;;;;10.48;6.00;;;;;;;7.28;89.53;99252.91;4127928;28;20212;-83
2022/02/23 07:44:13;;;;;;;13.25;6.35;;;;;;;7.62;88.85;99264.56;4136997;28;20228;-83
2022/02/23 07:46:18;;;;;;;7.45;5.57;;;;;;;7.86;89.47;99255.00;4105278;28;20675;-83
2022/02/23 07:48:22;;;;;;;10.88;7.00;;;;;;;8.06;89.46;99261.09;4128900;28;20229;-84
2022/02/23 07:50:28;;;;;;;11.70;5.75;;;;;;;7.94;88.40;99271.09;4127701;28;20436;-84
2022/02/23 07:52:32;;;;;;;11.05;5.80;;;;;;;8.09;86.87;99271.38;4126553;28;20201;-84
2022/02/23 07:54:36;;;;;;;13.13;6.30;;;;;;;8.38;86.74;99268.47;4114105;28;20221;-84
2022/02/23 07:56:39;;;;;;;7.93;5.50;;;;;;;8.66;88.09;99272.44;4125234;28;20732;-85
2022/02/23 07:58:42;;;;;;;12.20;6.07;;;;;;;8.91;86.98;99273.13;4123834;28;20243;-84
2022/02/23 08:00:45;;;;;;;11.68;5.13;;;;;;;9.14;87.99;99284.22;4122937;28;20230;-84
2022/02/23 08:02:49;;;;;;;7.82;5.47;;;;;;;9.35;87.07;99283.28;4127725;28;20209;-85
2022/02/23 08:04:52;;;;;;;13.33;5.70;;;;;;;9.53;85.65;99280.69;4101536;28;20213;-83
2022/02/23 08:06:56;;;;;;;15.05;8.40;;;;;;;9.70;85.05;99284.22;4119502;28;20639;-88
2022/02/23 08:08:59;;;;;;;13.80;8.30;;;;;;;9.84;83.99;99281.81;4118064;28;20224;-86
2022/02/23 08:11:03;;;;;;;7.80;5.10;;;;;;;10.03;85.13;99272.28;4118467;28;20651;-87
2022/02/23 08:13:07;;;;;;;7.38;5.55;;;;;;;10.17;83.71;99273.28;4121787;28;20661;-88
2022/02/23 08:20:10;;;;;;;7.20;3.97;;;;;;;10.46;81.51;99277.94;4121615;28;20640;-86
2022/02/23 08:22:15;;;;;;;6.87;4.30;;;;;;;10.59;82.01;99277.25;4123079;28;20654;-88
2022/02/23 08:24:18;;;;;;;9.57;4.93;;;;;;;10.73;83.17;99279.19;4121596;28;20654;-88
2022/02/23 08:26:25;;;;;;;9.50;4.13;;;;;;;10.87;82.54;99283.66;4130824;28;20980;-88
2022/02/23 08:28:28;;;;;;;8.93;3.83;;;;;;;11.00;82.94;99283.84;4125511;28;20659;-87
2022/02/23 08:30:31;;;;;;;9.25;3.92;;;;;;;11.14;81.16;99290.06;4125458;28;20280;-88
2022/02/23 08:32:35;;;;;;;10.07;3.77;;;;;;;11.27;80.20;99285.88;4124210;28;20629;-86
2022/02/23 08:34:39;;;;;;;8.13;3.57;;;;;;;11.41;81.14;99286.00;4121791;28;21052;-87
2022/02/23 08:36:42;;;;;;;10.77;3.63;;;;;;;11.58;80.83;99286.84;4126680;28;20675;-87
2022/02/23 08:38:45;;;;;;;7.03;3.07;;;;;;;11.72;79.13;99286.13;4123686;28;20698;-88
2022/02/23 08:40:48;;;;;;;6.00;2.77;;;;;;;11.83;79.35;99281.97;4120966;28;21027;-89
2022/02/23 08:42:53;;;;;;;8.90;2.70;;;;;;;11.96;76.60;99278.63;4110284;28;20977;-88
2022/02/23 08:44:56;;;;;;;8.07;2.60;;;;;;;12.06;76.00;99282.44;4119401;28;20728;-86
2022/02/23 08:46:59;;;;;;;6.90;2.80;;;;;;;12.16;76.92;99277.53;4125522;28;20636;-86
2022/02/23 08:49:03;;;;;;;10.70;3.63;;;;;;;12.25;75.58;99276.09;4132980;28;20652;-86
2022/02/23 08:51:06;;;;;;;6.67;3.20;;;;;;;12.34;76.39;99285.19;4122442;28;20668;-86
2022/02/23 08:53:09;;;;;;;7.43;2.90;;;;;;;12.41;74.80;99278.69;4125085;28;21171;-86
2022/02/23 08:55:14;;;;;;;9.80;3.27;;;;;;;12.47;74.65;99270.47;4122660;28;21294;-87
2022/02/23 08:57:17;;;;;;;9.10;2.90;;;;;;;12.53;72.55;99278.00;4122516;28;20685;-86
2022/02/23 08:59:21;;;;;;;8.53;3.00;;;;;;;12.52;75.20;99278.91;4103768;28;20637;-87
2022/02/23 09:01:25;;;;;;;5.83;3.23;;;;;;;12.59;75.00;99275.84;4125914;28;20641;-87
2022/02/23 09:03:28;;;;;;;7.13;3.10;;;;;;;12.68;73.72;99286.63;4104613;28;20644;-86
2022/02/23 09:05:31;;;;;;;6.60;2.50;;;;;;;12.77;73.73;99286.09;4118349;28;20650;-85
2022/02/23 09:07:36;;;;;;;6.27;2.93;;;;;;;12.87;74.38;99287.28;4117757;28;20623;-87
2022/02/23 09:09:43;;;;;;;8.30;2.60;;;;;;;12.91;73.17;99286.16;4115954;28;21069;-86
2022/02/23 09:11:47;;;;;;;5.37;2.60;;;;;;;12.96;72.30;99294.63;4122909;28;20638;-86
2022/02/23 09:13:50;;;;;;;4.17;2.20;;;;;;;12.99;71.72;99290.94;4127361;28;20631;-86
2022/02/23 09:15:55;;;;;;;4.50;2.40;;;;;;;12.90;71.92;99294.09;4120672;28;20733;-85
2022/02/23 09:17:58;;;;;;;6.30;2.70;;;;;;;12.92;72.88;99293.09;4120263;28;20648;-84
2022/02/23 09:20:01;;;;;;;6.17;2.43;;;;;;;13.05;73.38;99293.22;4117677;28;21230;-86
2022/02/23 09:22:04;;;;;;;6.40;2.80;;;;;;;13.13;73.67;99294.47;4121376;28;20645;-84
2022/02/23 09:24:08;;;;;;;6.03;2.67;;;;;;;13.16;73.39;99282.97;4115062;28;21036;-84
2022/02/23 09:26:11;;;;;;;5.23;2.37;;;;;;;13.11;72.02;99288.47;4103584;28;20644;-86
2022/02/23 09:28:15;;;;;;;6.73;2.43;;;;;;;13.20;72.40;99278.28;4120781;28;20961;-84
2022/02/23 09:30:19;;;;;;;2.97;1.90;;;;;;;13.28;70.79;99275.22;4115116;28;20670;-84
2022/02/23 09:32:23;;;;;;;6.40;2.50;;;;;;;13.35;70.16;99281.75;4115438;28;20713;-85
2022/02/23 09:34:26;;;;;;;6.90;2.33;;;;;;;13.46;70.97;99295.06;4121224;28;20641;-85
2022/02/23 09:36:29;;;;;;;7.07;3.50;;;;;;;13.50;71.13;99292.16;4118950;28;20632;-84
2022/02/23 09:38:32;;;;;;;8.00;3.83;;;;;;;13.49;70.97;99300.13;4116092;28;21420;-84
2022/02/23 09:40:36;;;;;;;5.73;3.80;;;;;;;13.46;70.42;99295.91;4125906;28;21202;-85
2022/02/23 09:42:39;;;;;;;6.67;3.10;;;;;;;13.54;69.11;99287.56;4127637;28;20642;-85
2022/02/23 09:44:44;;;;;;;6.97;2.50;;;;;;;13.57;69.15;99290.84;4116804;28;20631;-82
2022/02/23 09:47:07;;;;;;;6.17;2.90;;;;;;;13.63;68.40;99289.63;4121035;28;20631;-85
2022/02/23 09:49:13;;;;;;;6.63;2.60;;;;;;;13.65;68.31;99289.44;4102927;28;24402;-84
2022/02/23 09:51:16;;;;;;;5.47;2.63;;;;;;;13.67;66.77;99287.56;4118467;28;20643;-85
2022/02/23 09:53:20;;;;;;;9.47;2.70;;;;;;;13.68;65.20;99291.88;4117382;28;21210;-84